Time;durP1;ratioP1;P1;durP2;ratioP2;P2;SDS_P1;SDS_P2;PMS_P1;PMS_P2;Temp;Humidity;BMP_temperature;BMP_pressure;BME280_temperature;BME280_humidity;BME280_pressure;Samples;Min_cycle;Max_cycle;Signal;HPM_P1;HPM_P2
2023/12/25 00:01:26;;;;;;;1.63;0.17;;;11.20;99.90;11.30;98912.00;;;;4909539;28;112556;-76
2023/12/25 00:03:54;;;;;;;0.10;0.10;;;11.30;99.90;11.40;98912.00;;;;4899943;28;96464;-73
2023/12/25 00:06:20;;;;;;;0.20;0.20;;;11.40;99.90;11.50;98902.00;;;;4912850;28;89104;-73
2023/12/25 00:08:48;;;;;;;0.10;0.10;;;11.50;99.90;11.60;98902.00;;;;4913331;28;87812;-75
2023/12/25 00:11:15;;;;;;;0.10;0.10;;;11.60;99.90;11.70;98901.00;;;;4903622;28;89626;-73
2023/12/25 00:13:40;;;;;;;0.10;0.10;;;11.70;99.90;11.70;98900.00;;;;4921498;28;87989;-72
2023/12/25 00:16:06;;;;;;;0.10;0.10;;;11.70;99.90;11.70;98905.00;;;;4915455;28;107647;-73
2023/12/25 00:18:32;;;;;;;0.20;0.20;;;12.50;99.90;11.80;98895.00;;;;4912182;28;103825;-71
2023/12/25 00:20:57;;;;;;;0.10;0.10;;;11.80;99.90;11.80;98905.00;;;;4914704;28;114098;-69
2023/12/25 00:23:23;;;;;;;0.33;0.20;;;11.80;99.90;11.80;98916.00;;;;4917857;28;87721;-70
2023/12/25 00:25:49;;;;;;;0.10;0.10;;;12.70;99.90;11.90;98908.00;;;;4913503;28;107902;-70
2023/12/25 00:28:14;;;;;;;0.20;0.20;;;11.90;99.90;11.90;98895.00;;;;4913356;28;118073;-69
2023/12/25 00:30:40;;;;;;;0.10;0.10;;;11.90;99.90;11.90;98898.00;;;;4922056;28;116792;-68
2023/12/25 00:33:06;;;;;;;0.43;0.10;;;11.90;99.90;11.90;98901.00;;;;4917376;28;102663;-69
2023/12/25 00:35:31;;;;;;;0.10;0.10;;;11.90;99.90;11.90;98913.00;;;;4920504;28;88320;-68
2023/12/25 00:37:57;;;;;;;0.10;0.10;;;12.00;99.90;12.00;98921.00;;;;4912117;28;117876;-70
2023/12/25 00:40:22;;;;;;;0.10;0.10;;;12.00;99.90;12.00;98910.00;;;;4916538;28;115385;-69
2023/12/25 00:42:48;;;;;;;0.10;0.10;;;12.00;99.90;12.10;98902.00;;;;4918224;28;110079;-70
2023/12/25 00:45:14;;;;;;;0.10;0.10;;;12.10;99.90;12.10;98920.00;;;;4911956;28;108548;-70
2023/12/25 00:47:40;;;;;;;0.20;0.20;;;12.20;99.90;12.20;98925.00;;;;4904448;28;87755;-69
2023/12/25 00:50:05;;;;;;;0.10;0.10;;;12.20;99.90;12.20;98929.00;;;;4921064;28;120446;-68
2023/12/25 00:52:31;;;;;;;0.00;0.00;;;12.10;99.90;12.20;98932.00;;;;4913711;28;101310;-69
2023/12/25 00:54:57;;;;;;;0.40;0.10;;;12.40;99.90;12.20;98938.00;;;;4913811;28;103953;-69
2023/12/25 00:57:22;;;;;;;0.10;0.10;;;12.30;99.90;12.20;98949.00;;;;4914397;28;88062;-68
2023/12/25 00:59:48;;;;;;;0.10;0.10;;;12.20;99.90;12.20;98942.00;;;;4916328;28;117584;-69
2023/12/25 01:02:14;;;;;;;0.77;0.20;;;12.20;99.90;12.20;98950.00;;;;4918279;28;110476;-70
2023/12/25 01:04:40;;;;;;;0.10;0.10;;;12.30;99.90;12.20;98960.00;;;;4922321;28;87779;-70
2023/12/25 01:07:06;;;;;;;0.10;0.10;;;12.30;99.90;12.20;98960.00;;;;4913762;28;112561;-70
2023/12/25 01:09:31;;;;;;;0.10;0.10;;;12.30;99.90;12.20;98956.00;;;;4924152;28;107742;-69
2023/12/25 01:11:57;;;;;;;0.13;0.13;;;12.20;99.90;12.20;98962.00;;;;4914925;28;109079;-69
2023/12/25 01:14:23;;;;;;;0.10;0.10;;;12.20;99.90;12.20;98955.00;;;;4918916;28;89843;-70
2023/12/25 01:16:48;;;;;;;0.40;0.20;;;12.20;99.90;12.10;98945.00;;;;4911056;28;116256;-69
2023/12/25 01:19:14;;;;;;;0.50;0.10;;;12.20;99.90;12.10;98945.00;;;;4927244;28;116311;-70
2023/12/25 01:21:40;;;;;;;0.10;0.10;;;12.20;99.90;12.10;98974.00;;;;4911612;28;87903;-70
2023/12/25 01:24:05;;;;;;;0.33;0.13;;;12.20;99.90;12.00;98965.00;;;;4910313;28;108293;-70
2023/12/25 01:26:31;;;;;;;0.37;0.10;;;12.60;99.90;12.00;98964.00;;;;4922293;28;117215;-70
2023/12/25 01:28:57;;;;;;;0.10;0.10;;;12.10;99.90;12.00;98967.00;;;;4914887;28;89115;-69
2023/12/25 01:31:23;;;;;;;0.10;0.10;;;12.00;99.90;11.90;98956.00;;;;4915392;28;110606;-70
2023/12/25 01:33:49;;;;;;;0.00;0.00;;;12.00;99.90;11.90;98961.00;;;;4915780;28;88037;-70
2023/12/25 01:36:14;;;;;;;0.13;0.13;;;11.90;99.90;11.90;98974.00;;;;4925418;28;117028;-69
2023/12/25 01:38:40;;;;;;;1.93;0.27;;;11.90;99.90;11.80;98971.00;;;;4914655;28;93696;-70
2023/12/25 01:41:06;;;;;;;0.23;0.20;;;11.90;99.90;11.80;98967.00;;;;4916466;28;87492;-69
2023/12/25 01:43:31;;;;;;;0.17;0.17;;;11.90;99.90;11.80;98962.00;;;;4914021;28;105918;-69
2023/12/25 01:45:57;;;;;;;0.10;0.10;;;11.80;99.90;11.80;98935.00;;;;4914026;28;117480;-70
2023/12/25 01:48:25;;;;;;;0.30;0.30;;;11.80;99.90;11.80;98968.00;;;;4895207;28;117845;-70
2023/12/25 01:50:53;;;;;;;0.20;0.20;;;11.90;99.90;11.80;98946.00;;;;4912239;28;109802;-70
2023/12/25 01:53:20;;;;;;;0.20;0.20;;;11.90;99.90;11.90;98956.00;;;;4927144;28;87967;-69
2023/12/25 01:55:46;;;;;;;0.23;0.10;;;11.90;99.90;11.90;98968.00;;;;4912342;28;87686;-69
2023/12/25 01:58:11;;;;;;;1.80;0.10;;;11.90;99.90;11.90;98968.00;;;;4911775;28;89643;-69
2023/12/25 02:00:37;;;;;;;0.20;0.20;;;11.90;99.90;11.90;98960.00;;;;4909206;28;109917;-69
2023/12/25 02:03:03;;;;;;;0.37;0.30;;;12.00;99.90;12.00;98964.00;;;;4908967;28;108481;-69
2023/12/25 02:05:29;;;;;;;0.50;0.20;;;12.00;99.90;12.00;98927.00;;;;4913545;28;88531;-69
2023/12/25 02:07:55;;;;;;;0.10;0.10;;;12.00;99.90;12.00;98948.00;;;;4912004;28;116712;-69
2023/12/25 02:10:29;;;;;;;0.23;0.23;;;12.00;99.90;12.00;98947.00;;;;4908344;28;107726;-68
2023/12/25 02:12:55;;;;;;;0.30;0.10;;;12.00;99.90;12.00;98963.00;;;;4911066;28;87932;-69
2023/12/25 02:15:21;;;;;;;0.10;0.10;;;12.00;99.90;12.00;98951.00;;;;4906894;28;87815;-70
2023/12/25 02:17:48;;;;;;;0.20;0.20;;;12.00;99.90;12.00;98963.00;;;;4906745;28;117133;-70
2023/12/25 02:20:14;;;;;;;0.10;0.10;;;12.10;99.90;12.10;98974.00;;;;4912675;28;87110;-70
2023/12/25 02:22:41;;;;;;;0.20;0.20;;;12.10;99.90;12.00;98970.00;;;;4911856;28;88715;-69
2023/12/25 02:25:13;;;;;;;0.10;0.10;;;12.10;99.90;12.10;98973.00;;;;4924288;28;118168;-71
2023/12/25 02:27:39;;;;;;;0.10;0.10;;;12.10;99.90;12.00;98962.00;;;;4916359;28;88848;-71
2023/12/25 02:30:06;;;;;;;0.77;0.30;;;12.10;99.90;12.00;98964.00;;;;4906566;28;88227;-71
2023/12/25 02:32:32;;;;;;;0.33;0.20;;;12.10;99.90;12.10;98969.00;;;;4897222;28;87811;-71
2023/12/25 02:34:58;;;;;;;0.10;0.10;;;12.10;99.90;12.10;98971.00;;;;4897956;28;109479;-72
2023/12/25 02:37:24;;;;;;;0.10;0.10;;;12.10;99.90;12.10;99011.00;;;;4912933;28;88077;-71
2023/12/25 02:39:49;;;;;;;0.10;0.10;;;12.10;99.90;12.20;98980.00;;;;4915420;28;105945;-71
2023/12/25 02:42:15;;;;;;;0.20;0.20;;;12.20;99.90;12.20;98969.00;;;;4910083;28;107721;-72
2023/12/25 02:44:41;;;;;;;0.20;0.20;;;13.70;99.90;12.20;98953.00;;;;4898916;28;92785;-74
2023/12/25 02:47:06;;;;;;;0.10;0.03;;;12.20;99.90;12.20;98977.00;;;;4905981;28;117047;-71
2023/12/25 02:49:32;;;;;;;0.10;0.10;;;12.30;99.90;12.30;99003.00;;;;4906986;28;87946;-71
2023/12/25 02:51:58;;;;;;;0.87;0.10;;;12.50;99.90;12.30;99011.00;;;;4907011;28;108824;-71
2023/12/25 02:54:24;;;;;;;0.10;0.10;;;12.10;99.90;12.20;99002.00;;;;4910469;28;107025;-70
2023/12/25 02:56:49;;;;;;;0.40;0.30;;;12.20;99.90;12.20;98998.00;;;;4910914;28;114133;-71
2023/12/25 02:59:15;;;;;;;0.20;0.20;;;12.30;99.90;12.20;99003.00;;;;4909394;28;88073;-69
2023/12/25 03:01:41;;;;;;;0.10;0.10;;;12.20;99.90;12.20;99003.00;;;;4906403;28;108944;-70
2023/12/25 03:04:06;;;;;;;0.20;0.20;;;12.20;99.90;12.20;99001.00;;;;4909514;28;118349;-71
2023/12/25 03:06:32;;;;;;;1.10;0.20;;;12.30;99.90;12.30;98981.00;;;;4913935;28;110775;-70
2023/12/25 03:08:58;;;;;;;0.43;0.20;;;12.30;99.90;12.30;99012.00;;;;4910419;28;100836;-70
2023/12/25 03:11:23;;;;;;;0.50;0.20;;;12.30;99.90;12.30;98991.00;;;;4906981;28;108427;-71
2023/12/25 03:13:49;;;;;;;0.17;0.13;;;12.40;99.90;12.40;98992.00;;;;4909309;28;116461;-71
2023/12/25 03:16:18;;;;;;;2.30;0.10;;;12.30;99.90;12.40;99018.00;;;;4905504;28;115629;-71
2023/12/25 03:18:44;;;;;;;0.00;0.00;;;12.40;99.90;12.40;98997.00;;;;4912262;28;87660;-72
2023/12/25 03:21:09;;;;;;;0.20;0.20;;;12.40;99.90;12.40;99011.00;;;;4908145;28;108951;-71
2023/12/25 03:23:35;;;;;;;0.10;0.10;;;12.40;99.90;12.40;99012.00;;;;4907571;28;88661;-69
2023/12/25 03:26:01;;;;;;;1.70;0.20;;;12.50;99.90;12.50;99007.00;;;;4908195;28;87839;-70
2023/12/25 03:28:27;;;;;;;0.07;0.07;;;12.50;99.90;12.50;99013.00;;;;4907450;28;87639;-71
2023/12/25 03:30:54;;;;;;;0.10;0.10;;;12.50;99.90;12.50;99014.00;;;;4923934;28;87662;-72
2023/12/25 03:33:20;;;;;;;0.07;0.07;;;12.50;99.90;12.50;99026.00;;;;4895691;28;87689;-71
2023/12/25 03:35:46;;;;;;;0.10;0.10;;;12.50;99.90;12.50;99005.00;;;;4892844;28;96196;-72
2023/12/25 03:38:13;;;;;;;0.20;0.13;;;12.60;99.90;12.50;99016.00;;;;4916555;28;88215;-72
2023/12/25 03:40:39;;;;;;;1.23;0.10;;;12.60;99.90;12.60;99022.00;;;;4911653;28;88988;-72
2023/12/25 03:43:05;;;;;;;0.30;0.10;;;12.50;99.90;12.60;99015.00;;;;4912014;28;89135;-72
2023/12/25 03:45:31;;;;;;;0.10;0.10;;;12.60;99.90;12.60;99005.00;;;;4911940;28;88797;-71
2023/12/25 03:47:57;;;;;;;0.10;0.10;;;13.20;99.90;12.60;99025.00;;;;4929238;28;89036;-73
2023/12/25 03:50:23;;;;;;;0.10;0.10;;;12.60;99.90;12.60;99018.00;;;;4915133;28;108374;-72
2023/12/25 03:52:48;;;;;;;4.23;0.30;;;12.70;99.90;12.70;99022.00;;;;4926956;28;110556;-72
2023/12/25 03:55:14;;;;;;;0.20;0.20;;;12.70;99.90;12.70;99034.00;;;;4912361;28;87905;-72
2023/12/25 03:57:40;;;;;;;0.35;0.32;;;12.70;99.90;12.60;99024.00;;;;4911323;28;102340;-72
2023/12/25 04:00:07;;;;;;;0.20;0.20;;;13.00;99.90;12.50;99054.00;;;;4924009;28;87485;-74
2023/12/25 04:02:32;;;;;;;0.20;0.20;;;12.60;99.90;12.20;99036.00;;;;4901354;28;110364;-72
2023/12/25 04:04:58;;;;;;;0.10;0.10;;;12.40;99.90;12.00;99025.00;;;;4909182;28;117411;-74
2023/12/25 04:07:23;;;;;;;0.10;0.10;;;12.20;99.90;11.70;99037.00;;;;4895272;28;108809;-74
2023/12/25 04:09:50;;;;;;;1.60;0.30;;;11.90;99.90;11.60;99036.00;;;;4913550;28;107684;-73
2023/12/25 04:12:16;;;;;;;0.30;0.30;;;11.70;99.90;11.40;99006.00;;;;4925629;28;90433;-73
2023/12/25 04:14:42;;;;;;;0.30;0.30;;;11.60;99.90;11.30;99020.00;;;;4913968;28;118240;-72
2023/12/25 04:17:07;;;;;;;0.10;0.10;;;11.50;99.90;11.20;99033.00;;;;4915000;28;87754;-73
2023/12/25 04:19:33;;;;;;;0.20;0.20;;;11.40;99.90;11.20;99010.00;;;;4918336;28;110439;-74
2023/12/25 04:21:59;;;;;;;0.10;0.10;;;11.60;99.90;11.20;99013.00;;;;4930778;28;87558;-74
2023/12/25 04:24:25;;;;;;;0.20;0.10;;;11.30;99.90;11.10;99013.00;;;;4905474;28;116755;-72
2023/12/25 04:26:50;;;;;;;0.57;0.30;;;11.20;99.90;11.10;99015.00;;;;4911720;28;110928;-72
2023/12/25 04:29:16;;;;;;;0.20;0.20;;;11.20;99.90;11.10;99016.00;;;;4908830;28;93351;-74
2023/12/25 04:31:42;;;;;;;0.00;0.00;;;11.20;99.90;11.10;99011.00;;;;4909983;28;118443;-72
2023/12/25 04:34:08;;;;;;;0.10;0.10;;;11.10;99.90;11.10;99010.00;;;;4910493;28;87881;-72
2023/12/25 04:36:34;;;;;;;0.10;0.10;;;11.10;99.90;11.20;99003.00;;;;4911401;28;110545;-73
2023/12/25 04:38:59;;;;;;;0.10;0.10;;;11.20;99.90;11.20;98998.00;;;;4908236;28;108449;-72
2023/12/25 04:41:25;;;;;;;0.30;0.20;;;11.20;99.90;11.20;99014.00;;;;4909624;28;88766;-72
2023/12/25 04:43:51;;;;;;;0.10;0.10;;;11.30;99.90;11.30;99005.00;;;;4913708;28;104097;-73
2023/12/25 04:46:19;;;;;;;0.30;0.30;;;11.50;99.90;11.30;98993.00;;;;4914232;28;110380;-73
2023/12/25 04:48:45;;;;;;;0.50;0.50;;;11.30;99.90;11.30;98994.00;;;;4913628;28;88235;-71
2023/12/25 04:51:11;;;;;;;0.40;0.30;;;11.40;99.90;11.20;98970.00;;;;4912904;28;95466;-71
2023/12/25 04:53:36;;;;;;;0.20;0.13;;;11.30;99.90;11.10;98992.00;;;;4908640;28;108598;-71
2023/12/25 04:56:10;;;;;;;0.50;0.37;;;12.00;99.90;11.00;98992.00;;;;4893200;28;87800;-72
2023/12/25 04:58:35;;;;;;;0.40;0.40;;;11.10;99.90;10.90;98991.00;;;;4904840;28;87828;-72
2023/12/25 05:01:03;;;;;;;0.40;0.20;;;11.00;99.90;10.80;98989.00;;;;4909822;28;87496;-70
2023/12/25 05:03:29;;;;;;;0.40;0.40;;;10.90;99.90;10.70;98992.00;;;;4912784;28;88150;-70
2023/12/25 05:05:55;;;;;;;0.30;0.30;;;10.80;99.90;10.80;98981.00;;;;4908967;28;96937;-70
2023/12/25 05:08:20;;;;;;;0.33;0.20;;;10.80;99.90;10.80;98990.00;;;;4913218;28;87461;-70
2023/12/25 05:10:46;;;;;;;0.60;0.20;;;10.80;99.90;10.70;98982.00;;;;4913614;28;87171;-71
2023/12/25 05:13:12;;;;;;;0.30;0.23;;;10.80;99.90;10.70;98968.00;;;;4915086;28;115870;-70
2023/12/25 05:15:37;;;;;;;1.40;0.30;;;10.80;99.90;10.70;98977.00;;;;4911945;28;88057;-70
2023/12/25 05:18:03;;;;;;;0.87;0.40;;;10.80;99.90;10.70;98976.00;;;;4910917;28;107433;-72
2023/12/25 05:20:29;;;;;;;0.30;0.30;;;10.80;99.90;10.70;98984.00;;;;4913081;28;107611;-72
2023/12/25 05:22:54;;;;;;;0.10;0.10;;;10.80;99.90;10.80;98977.00;;;;4929095;28;112920;-69
2023/12/25 05:25:20;;;;;;;1.00;0.17;;;10.80;99.90;10.80;98974.00;;;;4907947;28;87312;-70
2023/12/25 05:27:46;;;;;;;0.00;0.00;;;10.90;99.90;10.90;98975.00;;;;4907616;28;88104;-70
2023/12/25 05:30:12;;;;;;;0.60;0.30;;;10.90;99.90;10.90;98970.00;;;;4916122;28;88032;-71
2023/12/25 05:32:38;;;;;;;0.20;0.20;;;11.00;99.90;11.00;98965.00;;;;4913623;28;88471;-70
2023/12/25 05:35:05;;;;;;;0.10;0.10;;;11.00;99.90;11.10;98966.00;;;;4899254;28;86515;-71
2023/12/25 05:37:31;;;;;;;0.13;0.10;;;11.10;99.90;11.20;98975.00;;;;4925263;28;93853;-70
2023/12/25 05:39:57;;;;;;;0.00;0.00;;;11.20;99.90;11.30;98966.00;;;;4909394;28;88054;-69
2023/12/25 05:42:22;;;;;;;0.13;0.13;;;11.30;99.90;11.40;98973.00;;;;4925490;28;117201;-70
2023/12/25 05:44:48;;;;;;;0.87;0.30;;;11.40;99.90;11.50;98973.00;;;;4908316;28;108497;-70
2023/12/25 05:47:14;;;;;;;0.20;0.20;;;11.50;99.90;11.50;98982.00;;;;4914002;28;108875;-71
2023/12/25 05:49:40;;;;;;;0.10;0.10;;;11.50;99.90;11.60;98995.00;;;;4906356;28;117420;-74
2023/12/25 05:52:06;;;;;;;0.10;0.10;;;11.60;99.90;11.70;99005.00;;;;4909424;28;88111;-72
2023/12/25 05:54:35;;;;;;;0.10;0.10;;;11.90;99.90;11.70;99012.00;;;;4898074;28;87859;-70
2023/12/25 05:57:00;;;;;;;0.00;0.00;;;11.70;99.90;11.80;99010.00;;;;4910487;28;87856;-71
2023/12/25 05:59:26;;;;;;;0.10;0.10;;;11.70;99.90;11.80;99015.00;;;;4910286;28;117020;-70
2023/12/25 06:01:52;;;;;;;0.00;0.00;;;11.80;99.90;11.80;99027.00;;;;4911777;28;114424;-71
2023/12/25 06:04:18;;;;;;;0.10;0.10;;;11.80;99.90;11.80;99014.00;;;;4909533;28;87514;-70
2023/12/25 06:06:44;;;;;;;0.07;0.07;;;11.80;99.90;11.60;99041.00;;;;4910397;28;109125;-70
2023/12/25 06:09:11;;;;;;;0.10;0.10;;;11.70;99.90;11.50;99039.00;;;;4908555;28;117861;-72
2023/12/25 06:11:38;;;;;;;0.33;0.27;;;11.60;99.90;11.50;99033.00;;;;4909194;28;87905;-70
2023/12/25 06:14:04;;;;;;;0.20;0.20;;;11.60;99.90;11.30;99032.00;;;;4908975;28;87886;-71
2023/12/25 06:16:30;;;;;;;0.10;0.10;;;11.40;99.90;11.30;99052.00;;;;4929171;28;101695;-70
2023/12/25 06:18:56;;;;;;;0.10;0.10;;;11.40;99.90;11.20;99047.00;;;;4911854;28;105003;-70
2023/12/25 06:21:22;;;;;;;0.10;0.10;;;11.30;99.90;11.20;99061.00;;;;4910532;28;117388;-70
2023/12/25 06:23:47;;;;;;;0.10;0.10;;;11.30;99.90;11.10;99063.00;;;;4902784;28;86880;-70
2023/12/25 06:26:13;;;;;;;0.03;0.03;;;11.20;99.90;11.10;99084.00;;;;4907896;28;88146;-71
2023/12/25 06:28:39;;;;;;;0.10;0.10;;;11.20;99.90;11.10;99089.00;;;;4914791;28;117471;-69
2023/12/25 06:31:04;;;;;;;0.20;0.20;;;11.10;99.90;11.10;99094.00;;;;4910523;28;88632;-70
2023/12/25 06:33:30;;;;;;;0.10;0.10;;;11.20;99.90;11.20;99106.00;;;;4907815;28;110111;-72
2023/12/25 06:35:56;;;;;;;0.10;0.10;;;11.20;99.90;11.10;99106.00;;;;4909719;28;109355;-71
2023/12/25 06:38:22;;;;;;;0.20;0.20;;;11.20;99.90;10.90;99105.00;;;;4911911;28;88519;-69
2023/12/25 06:40:47;;;;;;;0.07;0.03;;;11.00;99.90;10.80;99109.00;;;;4912055;28;87728;-69
2023/12/25 06:43:13;;;;;;;0.10;0.10;;;10.90;99.90;10.70;99102.00;;;;4901767;28;87573;-68
2023/12/25 06:45:39;;;;;;;0.00;0.00;;;10.80;99.90;10.60;99108.00;;;;4915487;28;109711;-69
2023/12/25 06:48:05;;;;;;;0.23;0.20;;;10.70;99.90;10.50;99123.00;;;;4910132;28;116518;-74
2023/12/25 06:50:30;;;;;;;0.13;0.10;;;10.60;99.90;10.40;99106.00;;;;4911548;28;87774;-71
2023/12/25 06:52:56;;;;;;;0.13;0.13;;;10.60;99.90;10.40;99103.00;;;;4910552;28;110330;-71
2023/12/25 06:55:22;;;;;;;0.10;0.10;;;10.50;99.90;10.30;99110.00;;;;4903941;28;104985;-70
2023/12/25 06:57:47;;;;;;;0.20;0.20;;;10.00;99.90;10.30;99114.00;;;;4913528;28;117730;-72
2023/12/25 07:00:13;;;;;;;0.10;0.10;;;10.40;99.90;10.30;99139.00;;;;4912073;28;117189;-70
2023/12/25 07:02:40;;;;;;;0.10;0.10;;;10.40;99.90;10.20;99142.00;;;;4901688;28;87656;-70
2023/12/25 07:05:06;;;;;;;0.43;0.30;;;10.30;99.90;10.20;99139.00;;;;4907337;28;87920;-71
2023/12/25 07:07:32;;;;;;;0.20;0.20;;;10.30;99.90;10.20;99139.00;;;;4915042;28;89989;-71
2023/12/25 07:09:58;;;;;;;0.10;0.10;;;10.30;99.90;10.20;99142.00;;;;4909100;28;102563;-71
2023/12/25 07:12:23;;;;;;;0.20;0.10;;;10.30;99.90;10.20;99125.00;;;;4910432;28;110951;-70
2023/12/25 07:14:53;;;;;;;0.00;0.00;;;10.30;99.90;10.20;99125.00;;;;4910179;28;107962;-72
2023/12/25 07:17:19;;;;;;;0.10;0.10;;;10.20;99.90;10.20;99134.00;;;;4906876;28;88380;-71
2023/12/25 07:19:44;;;;;;;0.00;0.00;;;10.20;99.90;10.20;99144.00;;;;4913860;28;89010;-74
2023/12/25 07:22:14;;;;;;;0.40;0.20;;;10.20;99.90;10.10;99146.00;;;;4911856;28;110604;-71
2023/12/25 07:24:39;;;;;;;0.13;0.13;;;10.20;99.90;10.10;99152.00;;;;4909265;28;87953;-71
2023/12/25 07:27:05;;;;;;;0.20;0.20;;;10.20;99.90;10.10;99157.00;;;;4912046;28;88214;-71
2023/12/25 07:29:31;;;;;;;0.23;0.23;;;10.20;99.90;10.20;99149.00;;;;4907802;28;115766;-71
2023/12/25 07:31:57;;;;;;;0.10;0.10;;;10.30;99.90;10.10;99136.00;;;;4927629;28;87783;-73
2023/12/25 07:34:23;;;;;;;0.10;0.10;;;10.20;99.90;10.10;99137.00;;;;4906077;28;87937;-72
2023/12/25 07:36:49;;;;;;;0.20;0.20;;;10.20;99.90;10.10;99131.00;;;;4913254;28;87287;-70
2023/12/25 07:39:16;;;;;;;0.00;0.00;;;10.20;99.90;10.10;99143.00;;;;4906104;28;87749;-72
2023/12/25 07:41:45;;;;;;;3.10;0.43;;;10.30;99.90;10.20;99133.00;;;;4910705;28;87704;-71
2023/12/25 07:44:12;;;;;;;0.00;0.00;;;10.20;99.90;10.20;99143.00;;;;4910527;28;89957;-71
2023/12/25 07:46:38;;;;;;;0.03;0.03;;;10.20;99.90;10.20;99147.00;;;;4924622;28;88349;-73
2023/12/25 07:49:03;;;;;;;0.13;0.10;;;10.20;99.90;10.20;99141.00;;;;4911979;28;98009;-73
2023/12/25 07:51:29;;;;;;;0.10;0.10;;;10.20;99.90;10.20;99146.00;;;;4906229;28;109939;-71
2023/12/25 07:53:55;;;;;;;0.10;0.10;;;10.20;99.90;10.10;99158.00;;;;4910721;28;108742;-72
2023/12/25 07:56:20;;;;;;;0.10;0.10;;;10.30;99.90;10.10;99151.00;;;;4908962;28;118054;-75
2023/12/25 07:58:49;;;;;;;0.20;0.20;;;10.20;99.90;10.10;99180.00;;;;4905368;28;117463;-75
2023/12/25 08:01:19;;;;;;;0.30;0.17;;;10.30;99.90;10.10;99164.00;;;;4906140;28;87235;-72
2023/12/25 08:03:45;;;;;;;0.87;0.30;;;10.20;99.90;10.10;99181.00;;;;4905802;28;87451;-74
2023/12/25 08:06:11;;;;;;;0.60;0.23;;;10.10;99.90;10.00;99198.00;;;;4907578;28;117478;-71
2023/12/25 08:08:37;;;;;;;0.20;0.20;;;10.20;99.90;10.00;99207.00;;;;4912464;28;88873;-71
2023/12/25 08:11:03;;;;;;;0.57;0.30;;;10.10;99.90;10.00;99215.00;;;;4909753;28;103615;-71
2023/12/25 08:13:28;;;;;;;0.30;0.20;;;10.10;99.90;10.00;99204.00;;;;4908457;28;87877;-74
2023/12/25 08:15:54;;;;;;;0.80;0.30;;;10.10;99.90;10.00;99216.00;;;;4908054;28;116675;-71
2023/12/25 08:18:20;;;;;;;0.30;0.17;;;10.00;99.90;10.00;99220.00;;;;4904852;28;117648;-71
2023/12/25 08:20:46;;;;;;;1.10;0.40;;;10.10;99.90;10.00;99235.00;;;;4923686;28;87890;-70
2023/12/25 08:23:11;;;;;;;0.33;0.20;;;10.10;99.90;10.00;99242.00;;;;4910172;28;108815;-70
2023/12/25 08:25:38;;;;;;;0.40;0.30;;;10.10;99.90;10.00;99236.00;;;;4913833;28;118684;-71
2023/12/25 08:28:04;;;;;;;0.17;0.17;;;11.00;99.90;9.90;99248.00;;;;4905625;28;87559;-72
2023/12/25 08:30:30;;;;;;;0.53;0.20;;;10.00;99.90;9.90;99243.00;;;;4919510;28;87649;-73
2023/12/25 08:32:55;;;;;;;0.30;0.30;;;10.00;99.90;10.00;99243.00;;;;4904110;28;108775;-71
2023/12/25 08:35:21;;;;;;;0.50;0.40;;;10.00;99.90;10.00;99239.00;;;;4897478;28;89345;-72
2023/12/25 08:37:48;;;;;;;0.57;0.50;;;10.10;99.90;10.00;99242.00;;;;4911363;28;115052;-71
2023/12/25 08:40:14;;;;;;;0.20;0.20;;;10.10;99.90;10.00;99242.00;;;;4911679;28;87810;-70
2023/12/25 08:42:40;;;;;;;0.10;0.10;;;10.10;99.90;10.10;99252.00;;;;4908722;28;87916;-72
2023/12/25 08:45:07;;;;;;;0.10;0.10;;;10.10;99.90;10.10;99270.00;;;;4890635;28;87955;-70
2023/12/25 08:47:33;;;;;;;0.20;0.20;;;10.20;99.90;10.10;99264.00;;;;4909643;28;87358;-70
2023/12/25 08:49:59;;;;;;;0.10;0.10;;;10.20;99.90;10.10;99270.00;;;;4911038;28;97251;-70
2023/12/25 08:52:25;;;;;;;0.63;0.20;;;10.20;99.90;10.10;99274.00;;;;4923505;28;87971;-71
2023/12/25 08:54:51;;;;;;;0.33;0.20;;;10.70;99.90;10.20;99250.00;;;;4904339;28;118105;-71
2023/12/25 08:57:16;;;;;;;0.20;0.20;;;10.30;99.90;10.20;99258.00;;;;4878278;28;88963;-70
2023/12/25 08:59:43;;;;;;;0.93;0.20;;;10.30;99.90;10.20;99280.00;;;;4905226;28;112259;-70
2023/12/25 09:02:09;;;;;;;0.27;0.27;;;10.90;99.90;10.30;99275.00;;;;4905999;28;87716;-74
2023/12/25 09:04:35;;;;;;;0.37;0.20;;;10.30;99.90;10.30;99265.00;;;;4906451;28;114821;-73
2023/12/25 09:07:01;;;;;;;0.20;0.20;;;10.30;99.90;10.30;99266.00;;;;4906692;28;87842;-70
2023/12/25 09:09:26;;;;;;;1.17;0.20;;;10.40;99.90;10.30;99270.00;;;;4909360;28;87920;-72
2023/12/25 09:11:52;;;;;;;0.50;0.30;;;10.30;99.90;10.40;99258.00;;;;4913447;28;108853;-72
2023/12/25 09:14:20;;;;;;;0.10;0.10;;;10.40;99.90;10.40;99292.00;;;;4908786;28;89985;-73
2023/12/25 09:16:46;;;;;;;0.10;0.10;;;10.40;99.90;10.60;99290.00;;;;4912969;28;87782;-71
2023/12/25 09:19:12;;;;;;;0.10;0.10;;;10.60;99.90;10.70;99310.00;;;;4906241;28;87958;-71
2023/12/25 09:21:41;;;;;;;1.83;0.37;;;10.70;99.90;10.70;99313.00;;;;4907219;28;88837;-72
2023/12/25 09:24:07;;;;;;;3.60;0.10;;;10.70;99.90;10.70;99316.00;;;;4905792;28;87275;-72
2023/12/25 09:26:33;;;;;;;0.20;0.20;;;10.70;99.90;10.70;99306.00;;;;4905450;28;87919;-69
2023/12/25 09:28:58;;;;;;;0.20;0.20;;;10.80;99.90;10.70;99326.00;;;;4908601;28;87509;-70
2023/12/25 09:31:24;;;;;;;0.83;0.20;;;10.80;99.90;10.80;99338.00;;;;4901612;28;88035;-69
2023/12/25 09:33:50;;;;;;;0.20;0.20;;;10.80;99.90;10.80;99323.00;;;;4903691;28;88544;-71
2023/12/25 09:36:16;;;;;;;0.43;0.40;;;10.80;99.90;10.80;99318.00;;;;4908217;28;116915;-69
2023/12/25 09:38:41;;;;;;;2.60;0.50;;;10.90;99.90;10.90;99308.00;;;;4921884;28;110074;-70
2023/12/25 09:41:10;;;;;;;0.37;0.20;;;10.90;99.90;10.90;99316.00;;;;4922832;28;106949;-69
2023/12/25 09:43:41;;;;;;;0.50;0.37;;;11.00;99.90;11.00;99300.00;;;;4896781;28;90033;-71
2023/12/25 09:46:09;;;;;;;0.20;0.10;;;11.10;99.90;11.00;99309.00;;;;4905416;28;90476;-70
2023/12/25 09:48:37;;;;;;;0.20;0.20;;;12.30;99.90;11.10;99313.00;;;;4920647;28;87593;-72
2023/12/25 09:51:05;;;;;;;4.13;0.20;;;11.10;99.90;11.10;99326.00;;;;4909115;28;87787;-72
2023/12/25 09:53:30;;;;;;;0.67;0.23;;;11.20;99.90;11.10;99332.00;;;;4906948;28;109256;-71
2023/12/25 09:55:58;;;;;;;1.20;0.60;;;11.20;99.90;11.00;99334.00;;;;4903461;28;117362;-76
2023/12/25 09:58:26;;;;;;;0.50;0.33;;;11.20;99.90;11.00;99323.00;;;;4924683;28;99908;-71
2023/12/25 10:00:54;;;;;;;0.30;0.23;;;11.20;99.90;11.00;99329.00;;;;4916432;28;97816;-72
2023/12/25 10:03:20;;;;;;;0.20;0.20;;;11.10;99.90;11.00;99338.00;;;;4918539;28;102352;-71
2023/12/25 10:05:46;;;;;;;0.17;0.17;;;12.50;99.90;10.90;99334.00;;;;4911489;28;87813;-73
2023/12/25 10:08:12;;;;;;;0.40;0.30;;;11.00;99.90;10.80;99330.00;;;;4918009;28;112165;-75
2023/12/25 10:10:38;;;;;;;0.43;0.43;;;10.90;99.90;10.70;99327.00;;;;4889862;28;108117;-73
2023/12/25 10:13:04;;;;;;;0.50;0.37;;;10.90;99.90;10.60;99336.00;;;;4906492;28;97548;-72
2023/12/25 10:15:30;;;;;;;0.50;0.33;;;10.70;99.90;10.60;99337.00;;;;4907176;28;88308;-72
2023/12/25 10:18:04;;;;;;;0.37;0.30;;;10.70;99.90;10.50;99323.00;;;;4910003;28;87971;-72
2023/12/25 10:20:30;;;;;;;0.30;0.30;;;10.60;99.90;10.50;99345.00;;;;4908276;28;88155;-70
2023/12/25 10:22:56;;;;;;;0.43;0.30;;;10.60;99.90;10.50;99338.00;;;;4908888;28;89027;-70
2023/12/25 10:25:28;;;;;;;2.37;0.33;;;10.50;99.90;10.40;99319.00;;;;4907174;28;87766;-70
2023/12/25 10:27:54;;;;;;;0.50;0.50;;;10.50;99.90;10.40;99325.00;;;;4914469;28;89724;-70
2023/12/25 10:30:26;;;;;;;0.30;0.30;;;10.50;99.90;10.40;99308.00;;;;4904066;28;87828;-70
2023/12/25 10:33:14;;;;;;;0.60;0.40;;;10.50;99.90;10.40;99297.00;;;;4903054;28;89746;-71
2023/12/25 10:35:41;;;;;;;0.30;0.30;;;10.50;99.90;10.40;99311.00;;;;4911707;28;88871;-70
2023/12/25 10:38:07;;;;;;;0.40;0.40;;;10.40;99.90;10.40;99326.00;;;;4908326;28;110366;-71
2023/12/25 10:40:34;;;;;;;0.53;0.40;;;10.50;99.90;10.40;99316.00;;;;4907629;28;87737;-70
2023/12/25 10:43:00;;;;;;;1.27;0.40;;;10.50;99.90;10.40;99308.00;;;;4893984;28;87970;-69
2023/12/25 10:45:28;;;;;;;0.60;0.40;;;10.50;99.90;10.40;99314.00;;;;4908453;28;87864;-73